Terminal Aerodrome Forecast
Issued by NWS

Home | Current Version | Previous Version | Text Only | Print | Product List | Glossary On
Versions: 1 2 3 4 5 6 7 8 9 10 11 12 13 14 15 16 17 18 19 20 21 22 23 24 25 26 27 28
000
FTUS43 KPAH 260520
TAFOWB
TAF
KOWB 260520Z 2606/2706 20009KT P6SM SCT015 BKN150
     FM261000 18006KT 6SM HZ BKN020
     FM261500 21012KT P6SM BKN035
     FM270100 17005KT P6SM BKN035=

USA.gov is the U.S. government's official web portal to all federal, state and local government web resources and services.